Time;durP1;ratioP1;P1;durP2;ratioP2;P2;SDS_P1;SDS_P2;PMS_P1;PMS_P2;Temp;Humidity;BMP_temperature;BMP_pressure;BME280_temperature;BME280_humidity;BME280_pressure;Samples;Min_cycle;Max_cycle;Signal;HPM_P1;HPM_P2
2023/12/27 00:02:05;;;;;;;;;;;;;;;8.12;59.47;101058.72;4954959;28;6819;-86
2023/12/27 00:04:30;;;;;;;;;;;;;;;8.15;60.58;101053.78;4941801;28;7122;-87
2023/12/27 00:06:59;;;;;;;;;;;;;;;8.17;60.55;101043.69;4942410;28;7028;-85
2023/12/27 00:09:24;;;;;;;;;;;;;;;8.16;60.20;101037.69;4953819;28;8515;-87
2023/12/27 00:11:50;;;;;;;;;;;;;;;8.16;60.19;101044.44;4938158;28;6967;-85
2023/12/27 00:14:15;;;;;;;;;;;;;;;8.13;59.82;101042.59;4939917;28;8425;-87
2023/12/27 00:16:41;;;;;;;;;;;;;;;8.09;59.53;101045.72;4959234;28;7149;-86
2023/12/27 00:19:09;;;;;;;;;;;;;;;8.08;59.24;101050.72;4955088;28;6856;-87
2023/12/27 00:21:35;;;;;;;;;;;;;;;8.00;59.15;101051.09;4973015;28;7474;-86
2023/12/27 00:24:01;;;;;;;;;;;;;;;7.96;59.23;101059.28;4940682;28;8475;-87
2023/12/27 00:26:26;;;;;;;;;;;;;;;7.88;59.09;101061.31;4956559;28;6806;-86
2023/12/27 00:28:52;;;;;;;;;;;;;;;7.87;59.40;101061.19;4936998;28;6760;-87
2023/12/27 00:31:18;;;;;;;;;;;;;;;7.81;59.76;101055.69;4936677;28;6947;-87
2023/12/27 00:33:43;;;;;;;;;;;;;;;7.75;59.57;101056.16;4957245;28;7174;-87
2023/12/27 00:36:09;;;;;;;;;;;;;;;7.69;59.26;101051.50;4940187;28;7111;-87
2023/12/27 00:38:35;;;;;;;;;;;;;;;7.68;59.69;101057.41;4957057;28;7187;-87
2023/12/27 00:41:01;;;;;;;;;;;;;;;7.64;59.75;101058.84;4940212;28;6952;-87
2023/12/27 00:43:27;;;;;;;;;;;;;;;7.64;60.08;101051.19;4938908;28;7036;-87
2023/12/27 00:45:52;;;;;;;;;;;;;;;7.66;59.87;101046.16;4939643;28;6942;-87
2023/12/27 00:48:18;;;;;;;;;;;;;;;7.71;60.99;101047.41;4957149;28;7108;-86
2023/12/27 00:50:43;;;;;;;;;;;;;;;7.74;60.43;101045.03;4939209;28;7134;-87
2023/12/27 00:53:09;;;;;;;;;;;;;;;7.78;60.24;101044.50;4956697;28;7305;-86
2023/12/27 00:55:37;;;;;;;;;;;;;;;7.80;61.06;101034.38;4944479;28;7196;-87
2023/12/27 00:58:02;;;;;;;;;;;;;;;7.85;59.82;101035.59;4942282;28;6836;-86
2023/12/27 01:00:28;;;;;;;;;;;;;;;7.89;60.39;101029.91;4941877;28;6810;-87
2023/12/27 01:02:53;;;;;;;;;;;;;;;7.92;60.68;101029.25;4976310;28;7103;-87
2023/12/27 01:05:19;;;;;;;;;;;;;;;7.97;61.21;101029.56;4977054;28;6807;-87
2023/12/27 01:07:44;;;;;;;;;;;;;;;8.02;60.53;101034.19;4943160;28;6932;-87
2023/12/27 01:10:10;;;;;;;;;;;;;;;8.04;60.85;101034.31;4956351;28;8024;-86
2023/12/27 01:12:35;;;;;;;;;;;;;;;8.11;60.95;101031.41;4941864;28;7372;-87
2023/12/27 01:15:05;;;;;;;;;;;;;;;8.18;60.87;101037.81;4957341;28;7232;-86
2023/12/27 01:17:30;;;;;;;;;;;;;;;8.23;60.26;101035.56;4944682;28;7047;-85
2023/12/27 01:19:56;;;;;;;;;;;;;;;8.27;61.52;101029.88;4975930;28;6783;-88
2023/12/27 01:22:21;;;;;;;;;;;;;;;8.30;60.02;101037.72;4958545;28;7036;-85
2023/12/27 01:24:47;;;;;;;;;;;;;;;8.32;60.42;101031.94;4951464;28;6805;-86
2023/12/27 01:27:12;;;;;;;;;;;;;;;8.33;60.43;101023.50;4958735;28;6935;-87
2023/12/27 01:29:38;;;;;;;;;;;;;;;8.37;60.42;101021.16;4960927;28;6882;-87
2023/12/27 01:32:07;;;;;;;;;;;;;;;8.38;60.60;101017.81;4955837;28;7216;-85
2023/12/27 01:34:32;;;;;;;;;;;;;;;8.39;60.68;101022.16;4943505;28;6973;-87
2023/12/27 01:36:58;;;;;;;;;;;;;;;8.40;59.90;101029.03;4960395;28;7009;-85
2023/12/27 01:39:23;;;;;;;;;;;;;;;8.37;60.98;101022.03;4961579;28;6974;-86
2023/12/27 01:41:49;;;;;;;;;;;;;;;8.35;60.36;101018.50;4940961;28;7027;-87
2023/12/27 01:44:14;;;;;;;;;;;;;;;8.31;60.88;101024.19;4938452;28;8789;-88
2023/12/27 01:46:40;;;;;;;;;;;;;;;8.26;60.00;101017.88;4962064;28;7212;-87
2023/12/27 01:49:05;;;;;;;;;;;;;;;8.26;60.31;101020.44;4959703;28;6976;-86
2023/12/27 01:51:31;;;;;;;;;;;;;;;8.19;61.12;101014.91;4942934;28;8111;-87
2023/12/27 01:54:01;;;;;;;;;;;;;;;8.19;60.93;101019.16;4943082;28;8391;-87
2023/12/27 01:56:29;;;;;;;;;;;;;;;8.16;60.66;101014.72;4964966;28;6991;-87
2023/12/27 01:58:54;;;;;;;;;;;;;;;8.14;60.34;101016.28;4942356;28;7153;-87
2023/12/27 02:01:20;;;;;;;;;;;;;;;8.16;60.74;101019.81;4943114;28;6991;-84
2023/12/27 02:03:45;;;;;;;;;;;;;;;8.18;60.01;101015.69;4945564;28;7023;-84
2023/12/27 02:06:11;;;;;;;;;;;;;;;8.16;61.14;101017.25;4945329;28;6956;-84
2023/12/27 02:08:40;;;;;;;;;;;;;;;8.21;60.51;101015.03;4978382;28;7079;-84
2023/12/27 02:11:06;;;;;;;;;;;;;;;8.22;60.63;101003.16;4944700;28;6992;-84
2023/12/27 02:13:31;;;;;;;;;;;;;;;8.24;60.37;101002.44;4957212;28;6836;-85
2023/12/27 02:15:57;;;;;;;;;;;;;;;8.28;60.19;101004.44;4944183;28;6800;-84
2023/12/27 02:18:23;;;;;;;;;;;;;;;8.29;60.25;101011.31;4944931;28;6970;-84
2023/12/27 02:20:50;;;;;;;;;;;;;;;8.31;61.24;101004.63;4961133;28;6828;-85
2023/12/27 02:23:18;;;;;;;;;;;;;;;8.31;60.66;100999.53;4959244;28;7300;-84
2023/12/27 02:25:45;;;;;;;;;;;;;;;8.31;60.41;101003.78;4958465;28;6969;-84
2023/12/27 02:28:12;;;;;;;;;;;;;;;8.30;61.00;101004.53;4977345;28;7250;-84
2023/12/27 02:30:38;;;;;;;;;;;;;;;8.28;59.90;100996.78;4960069;28;6984;-84
2023/12/27 02:33:04;;;;;;;;;;;;;;;8.26;60.19;100997.44;4977956;28;7003;-84
2023/12/27 02:35:30;;;;;;;;;;;;;;;8.23;60.52;100994.69;4961137;28;6955;-84
2023/12/27 02:37:56;;;;;;;;;;;;;;;8.23;60.22;100989.59;4961352;28;7127;-84
2023/12/27 02:40:21;;;;;;;;;;;;;;;8.23;60.55;100987.03;4962002;28;6837;-84
2023/12/27 02:42:47;;;;;;;;;;;;;;;8.22;60.13;100975.94;4942890;28;7300;-84
2023/12/27 02:45:13;;;;;;;;;;;;;;;8.22;59.75;100968.25;4942730;28;6998;-84
2023/12/27 02:47:38;;;;;;;;;;;;;;;8.22;60.32;100962.28;4959382;28;6864;-84
2023/12/27 02:50:04;;;;;;;;;;;;;;;8.22;60.44;100952.94;4961062;28;6960;-84
2023/12/27 02:52:30;;;;;;;;;;;;;;;8.23;60.23;100948.75;4943213;28;6973;-84
2023/12/27 02:54:56;;;;;;;;;;;;;;;8.24;60.65;100956.47;4959369;28;6788;-84
2023/12/27 02:57:22;;;;;;;;;;;;;;;8.22;60.11;100954.63;4960984;28;7224;-84
2023/12/27 02:59:47;;;;;;;;;;;;;;;8.24;60.31;100951.38;4958457;28;6838;-84
2023/12/27 03:02:13;;;;;;;;;;;;;;;8.24;60.33;100953.94;4973572;28;6946;-84
2023/12/27 03:04:41;;;;;;;;;;;;;;;8.26;60.40;100943.81;4978098;28;8420;-84
2023/12/27 03:07:07;;;;;;;;;;;;;;;8.32;60.58;100946.78;4960408;28;7050;-84
2023/12/27 03:09:33;;;;;;;;;;;;;;;8.36;61.35;100943.63;4958214;28;6801;-84
2023/12/27 03:11:59;;;;;;;;;;;;;;;8.42;60.65;100933.84;4954897;28;6886;-84
2023/12/27 03:14:25;;;;;;;;;;;;;;;8.50;60.64;100934.31;4959148;28;7199;-84
2023/12/27 03:16:51;;;;;;;;;;;;;;;8.56;61.13;100936.41;4937815;28;7193;-84
2023/12/27 03:19:16;;;;;;;;;;;;;;;8.64;61.06;100932.69;4940433;28;7406;-84
2023/12/27 03:21:42;;;;;;;;;;;;;;;8.71;60.86;100934.88;4957322;28;6795;-84
2023/12/27 03:24:07;;;;;;;;;;;;;;;8.79;60.70;100924.22;4958209;28;6957;-84
2023/12/27 03:26:35;;;;;;;;;;;;;;;8.85;61.25;100917.84;4971484;28;7240;-84
2023/12/27 03:29:01;;;;;;;;;;;;;;;8.93;61.18;100920.00;4956743;28;6843;-84
2023/12/27 03:31:28;;;;;;;;;;;;;;;9.01;60.90;100918.81;4971806;28;7288;-84
2023/12/27 03:33:58;;;;;;;;;;;;;;;9.05;61.54;100908.00;4969915;28;6981;-84
2023/12/27 03:36:24;;;;;;;;;;;;;;;9.10;61.51;100906.59;4939477;28;8593;-84
2023/12/27 03:38:50;;;;;;;;;;;;;;;9.14;60.76;100906.00;4972686;28;6983;-84
2023/12/27 03:41:15;;;;;;;;;;;;;;;9.16;60.53;100901.88;4944140;28;7140;-84
2023/12/27 03:43:41;;;;;;;;;;;;;;;9.22;61.23;100893.69;4941368;28;8381;-84
2023/12/27 03:46:07;;;;;;;;;;;;;;;9.27;60.63;100896.53;4944310;28;7022;-84
2023/12/27 03:48:32;;;;;;;;;;;;;;;9.30;60.65;100887.38;4974596;28;7142;-85
2023/12/27 03:50:58;;;;;;;;;;;;;;;9.35;61.34;100879.97;4970974;28;7028;-84
2023/12/27 03:53:23;;;;;;;;;;;;;;;9.41;60.37;100874.34;4940902;28;6806;-84
2023/12/27 03:55:49;;;;;;;;;;;;;;;9.44;60.64;100872.84;4941347;28;7036;-84
2023/12/27 03:58:14;;;;;;;;;;;;;;;9.51;60.71;100876.66;4941133;28;7071;-84
2023/12/27 04:00:40;;;;;;;;;;;;;;;9.56;60.72;100875.28;4952877;28;7230;-84
2023/12/27 04:03:05;;;;;;;;;;;;;;;9.61;60.03;100869.53;4961528;28;6982;-84
2023/12/27 04:05:31;;;;;;;;;;;;;;;9.67;60.70;100880.13;4954127;28;6780;-84
2023/12/27 04:07:56;;;;;;;;;;;;;;;9.69;60.30;100861.50;4939317;28;6973;-84
2023/12/27 04:10:25;;;;;;;;;;;;;;;9.75;60.81;100865.22;4956753;28;7019;-84
2023/12/27 04:12:51;;;;;;;;;;;;;;;9.78;59.78;100860.28;4971285;28;7286;-84
2023/12/27 04:15:17;;;;;;;;;;;;;;;9.82;59.98;100859.69;4940176;28;7369;-84
2023/12/27 04:17:42;;;;;;;;;;;;;;;9.85;60.35;100858.19;4937682;28;6971;-84
2023/12/27 04:20:08;;;;;;;;;;;;;;;9.88;60.36;100851.47;4956865;28;7040;-84
2023/12/27 04:22:34;;;;;;;;;;;;;;;9.93;60.41;100860.28;4964710;28;6784;-83
2023/12/27 04:24:59;;;;;;;;;;;;;;;9.94;60.05;100856.94;4940623;28;7123;-83
2023/12/27 04:27:25;;;;;;;;;;;;;;;9.98;59.87;100849.50;4942110;28;8470;-83
2023/12/27 04:29:50;;;;;;;;;;;;;;;10.02;59.93;100847.16;4960444;28;6979;-83
2023/12/27 04:32:16;;;;;;;;;;;;;;;10.01;60.17;100843.69;4955739;28;6937;-83
2023/12/27 04:34:41;;;;;;;;;;;;;;;10.02;60.06;100844.59;4942169;28;7137;-84
2023/12/27 04:37:07;;;;;;;;;;;;;;;10.06;59.96;100849.97;4957223;28;6971;-83
2023/12/27 04:39:32;;;;;;;;;;;;;;;10.08;60.44;100850.94;4974402;28;7155;-82
2023/12/27 04:41:58;;;;;;;;;;;;;;;10.11;60.56;100851.09;4975083;28;6969;-83
2023/12/27 04:44:23;;;;;;;;;;;;;;;10.12;59.92;100845.19;4956765;28;6796;-83
2023/12/27 04:46:49;;;;;;;;;;;;;;;10.12;59.67;100842.63;4961101;28;6971;-83
2023/12/27 04:49:14;;;;;;;;;;;;;;;10.14;60.32;100835.03;4941385;28;6757;-83
2023/12/27 04:51:40;;;;;;;;;;;;;;;10.18;59.91;100839.53;4955493;28;6784;-83
2023/12/27 04:54:08;;;;;;;;;;;;;;;10.20;60.01;100842.19;4957752;28;6939;-85
2023/12/27 04:56:33;;;;;;;;;;;;;;;10.22;59.70;100841.47;4972342;28;6816;-84
2023/12/27 04:58:59;;;;;;;;;;;;;;;10.26;60.24;100829.72;4958600;28;6974;-83
2023/12/27 05:01:25;;;;;;;;;;;;;;;10.28;59.62;100835.81;4938382;28;6847;-83
2023/12/27 05:03:50;;;;;;;;;;;;;;;10.31;59.83;100829.97;4958047;28;6951;-83
2023/12/27 05:06:16;;;;;;;;;;;;;;;10.33;59.67;100826.69;4961543;28;6817;-83
2023/12/27 05:08:50;;;;;;;;;;;;;;;10.33;59.75;100829.25;4957303;28;7146;-83
2023/12/27 05:11:18;;;;;;;;;;;;;;;10.37;59.98;100831.19;4961588;28;7241;-84
2023/12/27 05:13:44;;;;;;;;;;;;;;;10.40;59.57;100831.38;4970006;28;7374;-84
2023/12/27 05:16:10;;;;;;;;;;;;;;;10.41;59.50;100825.47;4952777;28;6811;-83
2023/12/27 05:18:40;;;;;;;;;;;;;;;10.39;59.37;100810.78;4962015;28;6788;-83
2023/12/27 05:21:11;;;;;;;;;;;;;;;10.39;59.49;100809.09;4958983;28;6988;-84
2023/12/27 05:23:36;;;;;;;;;;;;;;;10.38;59.56;100809.00;4944088;28;7056;-83
2023/12/27 05:26:03;;;;;;;;;;;;;;;10.38;59.50;100802.22;4974860;28;6855;-83
2023/12/27 05:28:28;;;;;;;;;;;;;;;10.38;59.84;100799.66;4957089;28;6823;-83
2023/12/27 05:30:54;;;;;;;;;;;;;;;10.40;59.89;100808.31;4941070;28;7033;-83
2023/12/27 05:33:20;;;;;;;;;;;;;;;10.42;59.70;100811.84;4971526;28;7042;-88
2023/12/27 05:35:46;;;;;;;;;;;;;;;10.45;59.95;100802.59;4958741;28;7493;-87
2023/12/27 05:38:12;;;;;;;;;;;;;;;10.49;60.35;100804.50;4956459;28;6796;-87
2023/12/27 05:40:37;;;;;;;;;;;;;;;10.51;60.10;100810.59;4954168;28;6969;-88
2023/12/27 05:43:03;;;;;;;;;;;;;;;10.53;59.84;100809.03;4972964;28;6803;-87
2023/12/27 05:45:29;;;;;;;;;;;;;;;10.54;60.06;100805.66;4958550;28;6811;-87
2023/12/27 05:47:54;;;;;;;;;;;;;;;10.53;59.66;100794.50;4957177;28;6787;-86
2023/12/27 05:50:22;;;;;;;;;;;;;;;10.56;60.18;100794.66;4939703;28;8561;-87
2023/12/27 05:52:49;;;;;;;;;;;;;;;10.61;59.64;100791.50;4941897;28;6869;-88
2023/12/27 05:55:15;;;;;;;;;;;;;;;10.59;59.88;100782.84;4963273;28;6778;-87
2023/12/27 05:57:40;;;;;;;;;;;;;;;10.62;60.36;100773.66;4959518;28;6941;-87
2023/12/27 06:00:07;;;;;;;;;;;;;;;10.64;60.53;100768.59;4940186;28;6955;-89
2023/12/27 06:02:33;;;;;;;;;;;;;;;10.67;59.79;100768.72;4965465;28;6988;-87
2023/12/27 06:04:59;;;;;;;;;;;;;;;10.68;59.96;100765.41;4961125;28;6948;-87
2023/12/27 06:07:25;;;;;;;;;;;;;;;10.69;59.90;100768.03;4943189;28;7832;-87
2023/12/27 06:09:51;;;;;;;;;;;;;;;10.70;59.66;100762.09;4944424;28;7161;-87
2023/12/27 06:12:20;;;;;;;;;;;;;;;10.69;60.27;100760.34;4962231;28;7055;-87
2023/12/27 06:14:46;;;;;;;;;;;;;;;10.70;60.30;100756.09;4960446;28;7227;-86
2023/12/27 06:17:13;;;;;;;;;;;;;;;10.70;60.26;100759.53;4961408;28;6927;-87
2023/12/27 06:19:39;;;;;;;;;;;;;;;10.71;59.86;100755.28;4943228;28;7130;-86
2023/12/27 06:22:05;;;;;;;;;;;;;;;10.74;59.86;100768.28;4976265;28;7284;-87
2023/12/27 06:24:30;;;;;;;;;;;;;;;10.73;60.26;100760.50;4976814;28;6954;-87
2023/12/27 06:26:56;;;;;;;;;;;;;;;10.74;60.25;100767.41;4945244;28;7003;-86
2023/12/27 06:29:24;;;;;;;;;;;;;;;10.76;60.40;100760.66;4959935;28;7191;-87
2023/12/27 06:31:50;;;;;;;;;;;;;;;10.77;60.08;100752.16;4959779;28;7325;-86
2023/12/27 06:34:18;;;;;;;;;;;;;;;10.77;60.36;100754.72;4944958;28;8417;-87
2023/12/27 06:36:44;;;;;;;;;;;;;;;10.74;60.47;100746.91;4976369;28;6997;-86
2023/12/27 06:39:12;;;;;;;;;;;;;;;10.78;60.42;100743.69;4965752;28;7203;-86
2023/12/27 06:41:38;;;;;;;;;;;;;;;10.76;60.39;100733.31;4976219;28;7292;-84
2023/12/27 06:44:06;;;;;;;;;;;;;;;10.75;60.32;100716.19;4956912;28;7089;-84
2023/12/27 06:46:31;;;;;;;;;;;;;;;10.78;60.35;100711.25;4940707;28;7179;-84
2023/12/27 06:48:57;;;;;;;;;;;;;;;10.76;60.22;100701.69;4957364;28;6795;-84
2023/12/27 06:51:22;;;;;;;;;;;;;;;10.72;60.25;100702.31;4974065;28;7157;-84
2023/12/27 06:53:51;;;;;;;;;;;;;;;10.69;60.52;100703.94;4959219;28;6868;-84
2023/12/27 06:56:16;;;;;;;;;;;;;;;10.67;60.61;100702.97;4965609;28;7059;-84
2023/12/27 06:58:42;;;;;;;;;;;;;;;10.68;60.95;100711.56;4956494;28;6959;-84
2023/12/27 07:01:09;;;;;;;;;;;;;;;10.67;60.44;100710.66;4959031;28;6938;-84
2023/12/27 07:03:35;;;;;;;;;;;;;;;10.69;60.61;100703.94;4959003;28;6992;-84
2023/12/27 07:06:03;;;;;;;;;;;;;;;10.74;60.91;100711.00;4974194;28;6893;-84
2023/12/27 07:08:30;;;;;;;;;;;;;;;10.74;60.65;100700.75;4939290;28;6868;-84
2023/12/27 07:10:55;;;;;;;;;;;;;;;10.74;60.91;100700.75;4941679;28;7118;-84
2023/12/27 07:13:21;;;;;;;;;;;;;;;10.76;61.03;100696.56;4957024;28;6912;-84
2023/12/27 07:15:49;;;;;;;;;;;;;;;10.77;61.14;100700.91;4956355;28;7064;-84
2023/12/27 07:18:15;;;;;;;;;;;;;;;10.78;61.25;100697.53;4954594;28;7739;-84
2023/12/27 07:20:40;;;;;;;;;;;;;;;10.79;60.50;100691.59;4953543;28;7271;-85
2023/12/27 07:23:06;;;;;;;;;;;;;;;10.79;61.01;100697.63;4950428;28;6966;-85
2023/12/27 07:25:32;;;;;;;;;;;;;;;10.82;60.97;100699.47;4958458;28;6962;-86
2023/12/27 07:27:57;;;;;;;;;;;;;;;10.83;61.02;100704.66;4958852;28;7229;-84
2023/12/27 07:30:23;;;;;;;;;;;;;;;10.86;61.07;100706.50;4959084;28;6862;-84
2023/12/27 07:32:48;;;;;;;;;;;;;;;10.87;61.35;100697.13;4956188;28;6993;-84
2023/12/27 07:35:14;;;;;;;;;;;;;;;10.86;61.08;100698.81;4957303;28;6958;-84
2023/12/27 07:37:41;;;;;;;;;;;;;;;10.88;60.96;100692.06;4939201;28;7048;-83
2023/12/27 07:40:07;;;;;;;;;;;;;;;10.91;61.19;100694.81;4941455;28;6963;-85
2023/12/27 07:42:33;;;;;;;;;;;;;;;10.93;61.55;100698.34;4941176;28;8740;-84
2023/12/27 07:44:59;;;;;;;;;;;;;;;10.96;61.18;100708.75;4949982;28;7339;-84
2023/12/27 07:47:24;;;;;;;;;;;;;;;10.94;61.03;100701.75;4956251;28;7058;-84
2023/12/27 07:49:49;;;;;;;;;;;;;;;10.97;61.58;100695.09;4953553;28;7305;-84
2023/12/27 07:52:17;;;;;;;;;;;;;;;11.00;61.20;100683.22;4961557;28;6968;-83
2023/12/27 07:54:43;;;;;;;;;;;;;;;11.04;61.37;100685.16;4973595;28;6799;-84
2023/12/27 07:57:08;;;;;;;;;;;;;;;11.04;61.24;100686.03;4943838;28;8435;-84
2023/12/27 07:59:34;;;;;;;;;;;;;;;11.06;61.36;100688.69;4956824;28;6792;-84
2023/12/27 08:02:00;;;;;;;;;;;;;;;11.07;61.31;100701.59;4955151;28;7203;-83
2023/12/27 08:04:35;;;;;;;;;;;;;;;11.08;61.39;100694.75;4959692;28;7082;-86
2023/12/27 08:07:07;;;;;;;;;;;;;;;11.10;61.77;100696.63;4976568;28;7174;-87
2023/12/27 08:12:45;;;;;;;;;;;;;;;11.14;61.53;100705.34;4958853;28;7020;-85
2023/12/27 08:15:18;;;;;;;;;;;;;;;11.15;61.52;100704.53;4958263;28;7058;-86
2023/12/27 08:17:46;;;;;;;;;;;;;;;11.11;61.07;100692.38;4960323;28;6985;-86
2023/12/27 08:20:12;;;;;;;;;;;;;;;11.13;60.93;100685.63;4976896;28;6780;-85
2023/12/27 08:22:37;;;;;;;;;;;;;;;11.12;61.46;100676.19;4944829;28;7105;-86
2023/12/27 08:25:05;;;;;;;;;;;;;;;11.15;61.18;100686.59;4953949;28;7075;-86
2023/12/27 08:27:31;;;;;;;;;;;;;;;11.12;60.96;100671.06;4973428;28;8511;-87
2023/12/27 08:29:59;;;;;;;;;;;;;;;11.15;61.01;100665.16;4946107;28;6826;-86
2023/12/27 08:32:24;;;;;;;;;;;;;;;11.18;61.44;100652.50;4974925;28;8578;-87
2023/12/27 08:34:50;;;;;;;;;;;;;;;11.20;61.35;100651.78;4943313;28;7095;-86
2023/12/27 08:37:16;;;;;;;;;;;;;;;11.26;61.35;100651.22;4946933;28;6925;-86
2023/12/27 08:39:41;;;;;;;;;;;;;;;11.33;61.18;100660.09;4979756;28;7130;-85
2023/12/27 08:42:07;;;;;;;;;;;;;;;11.37;61.86;100651.72;4943187;28;8688;-87
2023/12/27 08:44:32;;;;;;;;;;;;;;;11.44;61.47;100661.47;4946467;28;6966;-83
2023/12/27 08:46:58;;;;;;;;;;;;;;;11.52;61.28;100670.44;4960363;28;6798;-84
2023/12/27 08:49:25;;;;;;;;;;;;;;;11.60;61.27;100682.78;4958368;28;7106;-84
2023/12/27 08:51:50;;;;;;;;;;;;;;;11.66;61.80;100671.09;4944932;28;7117;-83
2023/12/27 08:54:16;;;;;;;;;;;;;;;11.77;62.18;100660.47;4942897;28;6817;-83
2023/12/27 08:56:41;;;;;;;;;;;;;;;11.88;62.43;100653.25;4942754;28;7224;-84
2023/12/27 08:59:08;;;;;;;;;;;;;;;12.02;62.87;100649.69;4957259;28;6934;-84
2023/12/27 09:01:34;;;;;;;;;;;;;;;12.19;63.24;100635.00;4975189;28;6824;-84
2023/12/27 09:04:00;;;;;;;;;;;;;;;12.33;63.01;100633.06;4961859;28;7195;-88
2023/12/27 09:06:26;;;;;;;;;;;;;;;12.46;62.75;100643.91;4977620;28;6970;-85
2023/12/27 09:08:52;;;;;;;;;;;;;;;12.60;62.78;100647.97;4979238;28;7185;-86
2023/12/27 09:11:18;;;;;;;;;;;;;;;12.73;62.63;100649.38;4977754;23;7226;-78
2023/12/27 09:13:44;;;;;;;;;;;;;;;12.84;62.22;100654.09;4973552;28;7155;-77
2023/12/27 09:16:09;;;;;;;;;;;;;;;12.91;62.09;100635.53;4991848;28;6808;-78
2023/12/27 09:18:35;;;;;;;;;;;;;;;12.99;61.68;100638.44;4982861;28;7042;-77
2023/12/27 09:21:00;;;;;;;;;;;;;;;13.07;62.14;100624.19;4972150;28;6946;-77
2023/12/27 09:23:26;;;;;;;;;;;;;;;13.14;61.42;100626.22;4969468;28;7145;-78
2023/12/27 09:25:51;;;;;;;;;;;;;;;13.21;61.34;100622.19;4960074;28;6994;-77
2023/12/27 09:28:18;;;;;;;;;;;;;;;13.27;60.88;100613.84;4968561;28;6949;-77
2023/12/27 09:30:44;;;;;;;;;;;;;;;13.32;60.73;100607.16;4969886;28;7306;-76
2023/12/27 09:33:09;;;;;;;;;;;;;;;13.34;60.58;100592.69;4959058;28;6784;-76
2023/12/27 09:35:35;;;;;;;;;;;;;;;13.39;59.86;100591.16;4945748;28;7227;-76
2023/12/27 09:38:00;;;;;;;;;;;;;;;13.41;59.73;100581.78;4945161;28;7285;-75
2023/12/27 09:40:26;;;;;;;;;;;;;;;13.45;60.14;100588.84;4947275;28;7209;-76
2023/12/27 09:42:53;;;;;;;;;;;;;;;13.50;59.74;100608.75;4960815;28;6883;-77
2023/12/27 09:45:20;;;;;;;;;;;;;;;13.46;59.58;100603.47;4963678;28;7161;-76
2023/12/27 09:47:53;;;;;;;;;;;;;;;13.53;58.78;100609.75;4940072;28;7273;-76
2023/12/27 09:50:19;;;;;;;;;;;;;;;13.52;59.41;100612.25;4944992;28;8474;-76
2023/12/27 09:52:47;;;;;;;;;;;;;;;13.54;59.35;100614.06;4954386;28;6962;-76
2023/12/27 09:55:13;;;;;;;;;;;;;;;13.56;58.71;100598.69;4958738;28;6809;-76
2023/12/27 09:57:41;;;;;;;;;;;;;;;13.57;59.39;100606.50;4958314;28;6856;-76
2023/12/27 10:00:10;;;;;;;;;;;;;;;13.59;59.07;100599.69;4966517;28;7313;-77
2023/12/27 10:02:40;;;;;;;;;;;;;;;13.60;59.14;100595.41;4950597;28;13735;-76
2023/12/27 10:05:22;;;;;;;;;;;;;;;13.62;58.46;100596.38;4958344;28;6974;-76
2023/12/27 10:07:48;;;;;;;;;;;;;;;13.62;58.61;100593.78;4950134;28;7007;-77
2023/12/27 10:10:14;;;;;;;;;;;;;;;13.65;58.29;100593.00;4963097;28;6792;-76
2023/12/27 10:12:40;;;;;;;;;;;;;;;13.67;58.66;100583.66;4964128;28;7021;-76
2023/12/27 10:15:08;;;;;;;;;;;;;;;13.70;58.68;100582.06;4945088;28;7134;-75
2023/12/27 10:17:33;;;;;;;;;;;;;;;13.74;58.26;100577.91;4962391;28;7229;-76
2023/12/27 10:19:59;;;;;;;;;;;;;;;13.77;57.80;100578.03;4968089;28;6977;-76
2023/12/27 10:22:25;;;;;;;;;;;;;;;13.82;58.17;100584.22;4962393;28;6859;-80
2023/12/27 10:24:50;;;;;;;;;;;;;;;13.87;58.21;100581.81;4971356;28;6874;-76
2023/12/27 10:27:16;;;;;;;;;;;;;;;13.92;57.60;100576.84;4972875;28;6804;-77
2023/12/27 10:29:48;;;;;;;;;;;;;;;13.95;58.08;100588.16;4960904;28;7231;-75
2023/12/27 10:32:16;;;;;;;;;;;;;;;13.99;56.64;100581.41;4966429;28;6991;-76
2023/12/27 10:34:42;;;;;;;;;;;;;;;14.01;57.12;100569.47;4959035;28;6978;-76
2023/12/27 10:37:11;;;;;;;;;;;;;;;14.02;56.96;100564.38;4943380;28;7016;-78
2023/12/27 10:39:43;;;;;;;;;;;;;;;14.05;57.32;100553.31;4944849;28;7292;-79
2023/12/27 10:42:11;;;;;;;;;;;;;;;14.08;57.11;100552.50;4962689;28;6815;-78
2023/12/27 10:44:36;;;;;;;;;;;;;;;14.09;57.12;100554.25;4959707;28;8550;-79
2023/12/27 10:47:04;;;;;;;;;;;;;;;14.11;56.67;100552.66;4966744;28;7184;-79
2023/12/27 10:49:31;;;;;;;;;;;;;;;14.12;56.88;100541.50;4961133;28;6808;-78
2023/12/27 10:51:59;;;;;;;;;;;;;;;14.13;56.41;100546.69;4944139;28;8465;-79
2023/12/27 10:54:25;;;;;;;;;;;;;;;14.16;56.83;100553.66;4964151;28;6973;-77
2023/12/27 10:56:53;;;;;;;;;;;;;;;14.19;56.55;100543.47;4965906;28;6803;-77
2023/12/27 10:59:19;;;;;;;;;;;;;;;14.20;55.68;100547.81;4962979;28;6922;-77
2023/12/27 11:01:44;;;;;;;;;;;;;;;14.20;56.19;100537.50;4949915;28;6942;-77
2023/12/27 11:04:11;;;;;;;;;;;;;;;14.23;56.16;100536.72;4970545;28;6945;-77
2023/12/27 11:06:37;;;;;;;;;;;;;;;14.24;55.91;100520.41;4960994;28;7808;-76
2023/12/27 11:09:07;;;;;;;;;;;;;;;14.25;55.61;100512.75;4971219;28;6792;-76
2023/12/27 11:11:40;;;;;;;;;;;;;;;14.26;56.31;100509.34;4956651;28;8440;-77
2023/12/27 11:14:11;;;;;;;;;;;;;;;14.28;56.54;100512.00;4966181;28;6815;-77
2023/12/27 11:16:39;;;;;;;;;;;;;;;14.28;56.38;100502.53;4961570;28;6999;-77
2023/12/27 11:19:06;;;;;;;;;;;;;;;14.29;55.77;100501.75;4961795;28;7013;-77
2023/12/27 11:21:32;;;;;;;;;;;;;;;14.30;55.78;100488.03;4976206;28;6856;-75
2023/12/27 11:23:58;;;;;;;;;;;;;;;14.31;56.39;100486.31;4969493;28;6788;-75
2023/12/27 11:26:24;;;;;;;;;;;;;;;14.31;55.54;100478.56;4961649;28;6956;-76
2023/12/27 11:28:49;;;;;;;;;;;;;;;14.33;55.89;100468.31;4954353;28;7279;-75
2023/12/27 11:31:16;;;;;;;;;;;;;;;14.34;55.50;100477.81;4970049;28;6825;-75
2023/12/27 11:33:42;;;;;;;;;;;;;;;14.37;55.20;100477.91;4966984;28;6951;-75
2023/12/27 11:36:08;;;;;;;;;;;;;;;14.39;55.44;100469.41;4970544;28;7023;-76
2023/12/27 11:38:34;;;;;;;;;;;;;;;14.41;55.73;100460.00;4968410;28;6808;-76
2023/12/27 11:41:01;;;;;;;;;;;;;;;14.46;55.79;100456.72;4971673;28;6776;-75
2023/12/27 11:44:03;;;;;;;;;;;;;;;14.54;55.18;100452.69;4948299;28;7009;-77
2023/12/27 11:46:30;;;;;;;;;;;;;;;14.61;55.41;100454.63;4958289;28;7203;-77
2023/12/27 11:48:59;;;;;;;;;;;;;;;14.67;55.31;100447.09;4956441;28;6824;-77
2023/12/27 11:51:32;;;;;;;;;;;;;;;14.76;55.29;100449.09;4932405;28;7034;-77
2023/12/27 11:53:58;;;;;;;;;;;;;;;14.84;55.43;100450.22;4954337;28;6824;-77
2023/12/27 11:56:27;;;;;;;;;;;;;;;14.93;54.66;100447.06;4963401;28;6963;-77
2023/12/27 11:58:53;;;;;;;;;;;;;;;15.01;54.61;100431.81;4970095;28;6820;-77
2023/12/27 12:01:19;;;;;;;;;;;;;;;15.07;54.09;100431.13;4956780;28;7053;-77
2023/12/27 12:03:55;;;;;;;;;;;;;;;15.10;53.90;100429.50;4945554;28;7011;-77
2023/12/27 12:06:38;;;;;;;;;;;;;;;15.13;54.00;100429.59;4962807;28;7673;-77
2023/12/27 12:09:05;;;;;;;;;;;;;;;15.15;53.89;100427.06;4955716;28;6875;-77
2023/12/27 12:11:34;;;;;;;;;;;;;;;15.20;53.88;100425.47;4973138;28;6943;-77
2023/12/27 12:14:00;;;;;;;;;;;;;;;15.24;53.72;100418.69;4940927;28;6989;-78
2023/12/27 12:16:31;;;;;;;;;;;;;;;15.26;53.87;100411.91;4954271;28;6966;-78
2023/12/27 12:18:58;;;;;;;;;;;;;;;15.29;53.52;100414.56;4953873;28;6985;-77
2023/12/27 12:21:23;;;;;;;;;;;;;;;15.28;53.64;100405.06;4956130;28;6855;-77
2023/12/27 12:23:49;;;;;;;;;;;;;;;15.32;53.53;100396.56;4958474;28;6784;-77
2023/12/27 12:26:14;;;;;;;;;;;;;;;15.33;52.82;100394.88;4947354;28;7002;-77
2023/12/27 12:28:40;;;;;;;;;;;;;;;15.33;52.94;100384.53;4954349;28;6788;-77
2023/12/27 12:31:05;;;;;;;;;;;;;;;15.33;52.95;100375.06;4954580;28;6780;-77
2023/12/27 12:33:31;;;;;;;;;;;;;;;15.33;53.05;100375.06;4954051;28;6792;-77
2023/12/27 12:35:57;;;;;;;;;;;;;;;15.31;52.79;100363.84;4959240;28;6856;-77
2023/12/27 12:38:22;;;;;;;;;;;;;;;15.31;53.08;100374.16;4962095;28;6788;-77
2023/12/27 12:40:48;;;;;;;;;;;;;;;15.31;52.55;100369.00;4947775;28;6955;-77
2023/12/27 12:43:17;;;;;;;;;;;;;;;15.31;52.79;100371.59;4962944;28;6796;-77
2023/12/27 12:45:46;;;;;;;;;;;;;;;15.30;52.57;100364.66;4940213;28;7099;-77
2023/12/27 12:48:12;;;;;;;;;;;;;;;15.26;52.25;100365.44;4938937;28;7007;-78
2023/12/27 12:50:37;;;;;;;;;;;;;;;15.21;52.25;100357.56;4952227;28;7193;-77